Time;durP1;ratioP1;P1;durP2;ratioP2;P2;SDS_P1;SDS_P2;PMS_P1;PMS_P2;Temp;Humidity;BMP_temperature;BMP_pressure;BME280_temperature;BME280_humidity;BME280_pressure;Samples;Min_cycle;Max_cycle;Signal;HPM_P1;HPM_P2
2022/03/11 00:02:08;;;;;;;18.17;12.07;;;6.10;96.90;;;;;;5014215;28;20061;-69
2022/03/11 00:04:34;;;;;;;15.20;11.48;;;6.60;99.90;;;;;;5014036;28;20489;-69
2022/03/11 00:06:59;;;;;;;17.88;11.90;;;6.30;99.90;;;;;;5013695;28;20096;-69
2022/03/11 00:09:25;;;;;;;19.05;11.40;;;6.00;99.90;;;;;;5012462;28;20038;-69
2022/03/11 00:11:50;;;;;;;19.50;12.10;;;6.20;99.90;;;;;;5013556;28;20041;-68
2022/03/11 00:14:16;;;;;;;19.13;11.68;;;6.00;99.90;;;;;;5013025;28;20050;-68
2022/03/11 00:16:42;;;;;;;21.35;11.93;;;6.20;99.90;;;;;;5013074;28;20056;-69
2022/03/11 00:19:07;;;;;;;18.13;12.10;;;6.70;99.90;;;;;;5012670;28;20045;-69
2022/03/11 00:21:33;;;;;;;19.92;11.38;;;6.30;99.90;;;;;;5013930;28;20042;-68
2022/03/11 00:23:59;;;;;;;18.13;11.30;;;5.80;99.90;;;;;;5014327;28;20038;-69
2022/03/11 00:26:25;;;;;;;20.48;11.30;;;;;;;;;;5013890;28;20065;-69
2022/03/11 00:28:51;;;;;;;20.42;11.90;;;6.30;99.90;;;;;;5014184;28;20049;-69
2022/03/11 00:31:17;;;;;;;15.60;10.90;;;;;;;;;;5013348;28;20034;-68
2022/03/11 00:33:43;;;;;;;18.05;10.82;;;5.60;99.90;;;;;;5014060;28;20049;-69
2022/03/11 00:36:09;;;;;;;16.33;11.60;;;5.90;99.90;;;;;;5012449;28;20053;-69
2022/03/11 00:38:35;;;;;;;16.27;11.30;;;;;;;;;;5014132;28;20501;-68
2022/03/11 00:41:01;;;;;;;18.08;11.48;;;6.00;99.90;;;;;;5013717;28;20049;-69
2022/03/11 00:43:27;;;;;;;17.60;10.95;;;5.80;96.30;;;;;;5013744;28;20030;-68
2022/03/11 00:45:53;;;;;;;15.23;10.43;;;5.70;99.90;;;;;;5012340;28;20041;-69
2022/03/11 00:48:20;;;;;;;20.90;10.95;;;5.40;99.90;;;;;;5012429;28;20120;-68
2022/03/11 00:50:46;;;;;;;18.67;11.02;;;5.70;99.90;;;;;;5011277;28;20046;-68
2022/03/11 00:53:12;;;;;;;17.65;10.63;;;5.90;99.90;;;;;;5013864;28;20088;-68
2022/03/11 00:55:37;;;;;;;15.63;10.10;;;5.60;99.90;;;;;;5013607;28;20042;-68
2022/03/11 00:58:03;;;;;;;20.85;11.25;;;5.80;99.90;;;;;;5012018;28;20439;-68
2022/03/11 01:00:29;;;;;;;16.15;10.75;;;5.50;99.90;;;;;;5012603;28;20034;-68
2022/03/11 01:02:55;;;;;;;18.60;10.20;;;;;;;;;;5013475;28;20062;-68
2022/03/11 01:05:22;;;;;;;18.38;11.18;;;5.40;99.90;;;;;;5012872;28;20033;-68
2022/03/11 01:07:48;;;;;;;15.55;10.60;;;5.70;99.90;;;;;;5013860;28;20053;-68
2022/03/11 01:10:14;;;;;;;18.13;10.82;;;5.20;99.90;;;;;;5011832;28;20038;-68
2022/03/11 01:12:40;;;;;;;17.33;11.10;;;5.50;99.90;;;;;;5013156;28;20120;-68
2022/03/11 01:15:07;;;;;;;17.13;11.30;;;5.50;99.90;;;;;;5012715;28;20113;-68
2022/03/11 01:17:33;;;;;;;18.30;11.30;;;5.60;99.90;;;;;;5013214;28;20042;-68
2022/03/11 01:19:59;;;;;;;16.40;10.95;;;5.00;99.90;;;;;;5013073;28;20595;-68
2022/03/11 01:22:25;;;;;;;15.90;10.80;;;5.40;99.90;;;;;;5012951;28;20074;-68
2022/03/11 01:24:50;;;;;;;18.13;11.05;;;5.20;99.90;;;;;;5011325;28;20445;-68
2022/03/11 01:27:17;;;;;;;18.10;11.30;;;;;;;;;;5012850;28;20037;-68
2022/03/11 01:29:42;;;;;;;18.33;10.90;;;5.60;99.90;;;;;;5011375;28;20041;-68
2022/03/11 01:32:08;;;;;;;17.95;11.30;;;4.70;99.90;;;;;;5012946;28;20128;-68
2022/03/11 01:34:34;;;;;;;25.25;11.45;;;5.30;99.90;;;;;;5011215;28;20046;-68
2022/03/11 01:36:59;;;;;;;17.58;10.75;;;4.80;99.90;;;;;;5011644;28;20048;-68
2022/03/11 01:39:25;;;;;;;16.55;11.32;;;;;;;;;;5012450;28;20077;-68
2022/03/11 01:41:52;;;;;;;18.33;11.88;;;5.40;99.90;;;;;;5011734;28;20046;-68
2022/03/11 01:44:17;;;;;;;18.60;11.18;;;5.10;99.90;;;;;;5010598;28;20131;-68
2022/03/11 01:46:43;;;;;;;19.63;11.25;;;4.90;99.90;;;;;;5011916;28;20069;-68
2022/03/11 01:49:11;;;;;;;18.77;11.60;;;5.10;99.90;;;;;;5012464;28;20104;-68
2022/03/11 01:51:41;;;;;;;21.42;11.77;;;5.30;99.90;;;;;;5011808;28;20112;-68
2022/03/11 01:54:08;;;;;;;30.77;12.05;;;5.00;99.90;;;;;;5011315;28;20056;-68
2022/03/11 01:56:36;;;;;;;19.35;11.90;;;5.30;99.90;;;;;;5011078;28;20045;-68
2022/03/11 01:59:02;;;;;;;18.65;12.45;;;;;;;;;;5012281;28;20125;-68
2022/03/11 02:01:27;;;;;;;19.17;11.57;;;5.20;99.90;;;;;;4995508;28;20051;-68
2022/03/11 02:03:53;;;;;;;24.30;12.98;;;4.80;99.90;;;;;;5004877;28;20058;-68
2022/03/11 02:06:19;;;;;;;20.90;12.98;;;4.20;99.90;;;;;;4992472;28;20077;-68
2022/03/11 02:08:45;;;;;;;23.95;13.45;;;;;;;;;;4991986;28;20429;-68
2022/03/11 02:11:11;;;;;;;20.98;13.00;;;5.00;99.90;;;;;;4992693;28;20085;-68
2022/03/11 02:13:46;;;;;;;20.52;13.15;;;4.90;99.90;;;;;;4992044;28;20042;-68
2022/03/11 02:16:19;;;;;;;19.60;13.00;;;5.00;99.90;;;;;;4991442;28;20129;-68
2022/03/11 02:18:45;;;;;;;17.80;13.30;;;4.80;99.90;;;;;;4991904;28;20051;-69
2022/03/11 02:21:12;;;;;;;18.45;13.35;;;4.90;99.90;;;;;;4992643;28;20462;-68
2022/03/11 02:23:46;;;;;;;20.25;13.82;;;4.80;99.90;;;;;;4991225;28;20080;-68
2022/03/11 02:26:16;;;;;;;20.35;13.52;;;4.60;99.90;;;;;;4992262;28;20042;-68
2022/03/11 02:28:46;;;;;;;20.65;14.05;;;5.10;99.90;;;;;;4991794;28;20081;-68
2022/03/11 02:31:12;;;;;;;19.73;13.63;;;4.80;99.90;;;;;;4992603;28;20031;-68
2022/03/11 02:33:38;;;;;;;23.90;13.88;;;4.80;99.90;;;;;;4991700;28;20763;-68
2022/03/11 02:36:05;;;;;;;26.30;14.27;;;4.60;99.90;;;;;;4989357;28;20108;-68
2022/03/11 02:38:31;;;;;;;28.85;14.43;;;;;;;;;;4992671;28;20389;-68
2022/03/11 02:40:57;;;;;;;20.42;14.55;;;4.80;99.90;;;;;;4991962;28;20038;-68
2022/03/11 02:43:24;;;;;;;21.60;13.80;;;5.20;99.90;;;;;;4990995;28;20037;-68
2022/03/11 02:45:50;;;;;;;20.25;14.65;;;4.20;99.90;;;;;;4992780;28;20138;-68
2022/03/11 02:48:15;;;;;;;23.50;15.32;;;4.50;99.90;;;;;;4992547;28;20038;-68
2022/03/11 02:50:42;;;;;;;23.92;14.80;;;4.70;99.90;;;;;;4992270;28;20648;-68
2022/03/11 02:53:08;;;;;;;26.10;16.33;;;4.80;99.90;;;;;;4992407;28;20457;-67
2022/03/11 02:55:34;;;;;;;22.02;15.30;;;4.70;99.90;;;;;;4990718;28;20397;-67
2022/03/11 02:58:00;;;;;;;21.25;15.10;;;4.30;99.90;;;;;;5007836;28;20049;-67
2022/03/11 03:00:25;;;;;;;23.83;15.93;;;4.40;99.90;;;;;;4991761;28;20038;-67
2022/03/11 03:02:51;;;;;;;23.60;15.23;;;4.20;99.90;;;;;;4992385;28;20054;-67
2022/03/11 03:05:17;;;;;;;22.23;15.30;;;;;;;;;;4992286;28;20046;-67
2022/03/11 03:07:43;;;;;;;25.55;17.30;;;4.50;99.90;;;;;;4974894;28;20046;-67
2022/03/11 03:10:13;;;;;;;26.00;15.82;;;4.90;99.90;;;;;;5006951;28;20199;-67
2022/03/11 03:12:39;;;;;;;26.88;16.58;;;4.20;99.90;;;;;;4991352;28;20073;-67
2022/03/11 03:15:07;;;;;;;24.02;15.82;;;4.10;99.90;;;;;;4995978;28;20117;-67
2022/03/11 03:17:33;;;;;;;23.13;16.30;;;4.20;99.90;;;;;;4996047;28;20038;-67
2022/03/11 03:19:58;;;;;;;29.02;17.00;;;3.90;99.90;;;;;;4995675;28;20054;-67
2022/03/11 03:22:24;;;;;;;24.10;16.92;;;4.30;99.90;;;;;;4994329;28;20046;-67
2022/03/11 03:24:50;;;;;;;26.42;17.23;;;4.10;99.90;;;;;;4995494;28;20486;-67
2022/03/11 03:27:16;;;;;;;26.23;17.33;;;4.10;99.90;;;;;;4994401;28;20039;-67
2022/03/11 03:29:42;;;;;;;26.80;17.50;;;4.20;99.90;;;;;;4994162;28;20034;-67
2022/03/11 03:32:08;;;;;;;25.20;17.73;;;3.90;99.90;;;;;;4995755;28;20042;-67
2022/03/11 03:34:35;;;;;;;25.65;17.52;;;4.30;99.90;;;;;;4995394;28;20042;-67
2022/03/11 03:37:04;;;;;;;28.33;18.45;;;4.20;99.90;;;;;;4994497;28;20552;-67
2022/03/11 03:39:30;;;;;;;28.73;18.40;;;4.00;99.90;;;;;;5009894;28;20092;-67
2022/03/11 03:41:56;;;;;;;26.50;17.98;;;4.30;99.90;;;;;;4995703;28;20494;-67
2022/03/11 03:44:23;;;;;;;27.20;19.48;;;;;;;;;;4993856;28;20050;-67
2022/03/11 03:46:49;;;;;;;26.80;18.35;;;4.30;99.90;;;;;;4994620;28;20516;-67
2022/03/11 03:49:15;;;;;;;30.00;18.98;;;;;;;;;;4994766;28;20034;-67
2022/03/11 03:51:42;;;;;;;27.80;19.35;;;4.30;99.90;;;;;;4995184;28;20047;-67
2022/03/11 03:54:11;;;;;;;35.97;20.27;;;4.00;99.90;;;;;;5009574;28;20049;-67
2022/03/11 03:56:43;;;;;;;29.35;19.73;;;4.50;99.90;;;;;;4995304;28;20050;-67
2022/03/11 03:59:10;;;;;;;28.58;19.48;;;3.80;99.90;;;;;;4995017;28;20120;-67
2022/03/11 04:01:38;;;;;;;37.17;20.58;;;3.80;99.90;;;;;;4993478;28;20062;-67
2022/03/11 04:04:05;;;;;;;29.20;19.50;;;4.00;99.90;;;;;;4993414;28;20054;-67
2022/03/11 04:06:35;;;;;;;28.30;20.02;;;3.80;99.90;;;;;;4995044;28;20167;-67
2022/03/11 04:09:03;;;;;;;30.02;20.00;;;4.10;99.90;;;;;;4994601;28;20128;-67
2022/03/11 04:11:29;;;;;;;31.15;20.58;;;3.40;99.90;;;;;;4994835;28;20046;-67
2022/03/11 04:13:56;;;;;;;30.77;20.58;;;3.70;99.90;;;;;;4993756;28;20390;-67
2022/03/11 04:16:22;;;;;;;30.40;20.17;;;3.60;99.90;;;;;;4993049;28;20050;-67
2022/03/11 04:18:48;;;;;;;30.95;21.17;;;3.80;99.90;;;;;;4994776;28;20405;-66
2022/03/11 04:21:15;;;;;;;35.17;21.23;;;3.70;99.90;;;;;;4994308;28;20614;-67
2022/03/11 04:23:42;;;;;;;30.10;21.42;;;3.50;99.90;;;;;;4993997;28;20138;-67
2022/03/11 04:26:08;;;;;;;35.90;22.27;;;4.10;99.90;;;;;;4994558;28;20437;-67
2022/03/11 04:28:37;;;;;;;36.33;22.10;;;3.70;99.90;;;;;;4994544;28;20042;-67
2022/03/11 04:31:04;;;;;;;32.28;21.73;;;3.50;99.90;;;;;;4993135;28;20050;-66
2022/03/11 04:33:30;;;;;;;29.92;21.42;;;3.30;99.90;;;;;;4994339;28;20085;-67
2022/03/11 04:35:56;;;;;;;31.85;21.90;;;3.40;99.90;;;;;;4992940;28;20524;-67
2022/03/11 04:38:21;;;;;;;35.95;21.80;;;3.50;99.90;;;;;;4993629;28;20042;-67
2022/03/11 04:40:47;;;;;;;33.50;22.10;;;3.50;99.90;;;;;;4993283;28;20038;-66
2022/03/11 04:43:13;;;;;;;31.67;21.52;;;3.40;99.90;;;;;;4994299;28;20120;-67
2022/03/11 04:45:39;;;;;;;32.03;21.80;;;3.30;99.90;;;;;;4993807;28;20034;-67
2022/03/11 04:48:05;;;;;;;39.70;23.15;;;4.50;99.90;;;;;;4994174;28;20038;-67
2022/03/11 04:50:30;;;;;;;32.92;22.13;;;3.50;99.90;;;;;;4992653;28;20046;-67
2022/03/11 04:52:56;;;;;;;35.97;22.38;;;3.30;99.90;;;;;;4992814;28;20042;-67
2022/03/11 04:55:22;;;;;;;31.88;21.85;;;3.40;99.90;;;;;;4993610;28;20131;-67
2022/03/11 04:57:48;;;;;;;36.47;23.75;;;3.40;99.90;;;;;;4992613;28;20441;-67
2022/03/11 05:00:15;;;;;;;37.13;23.00;;;3.20;99.90;;;;;;4993637;28;20074;-67
2022/03/11 05:02:44;;;;;;;39.92;22.52;;;3.30;99.90;;;;;;4976261;28;20489;-67
2022/03/11 05:05:11;;;;;;;39.35;22.92;;;3.20;99.90;;;;;;4993890;28;20121;-67
2022/03/11 05:07:37;;;;;;;36.60;22.40;;;3.80;99.90;;;;;;4993479;28;20046;-67
2022/03/11 05:10:05;;;;;;;36.08;23.05;;;3.40;99.90;;;;;;4993351;28;20498;-67
2022/03/11 05:12:31;;;;;;;35.92;22.88;;;3.20;99.90;;;;;;4992905;28;20050;-67
2022/03/11 05:14:57;;;;;;;35.00;23.27;;;2.80;99.90;;;;;;4992678;28;20054;-67
2022/03/11 05:17:23;;;;;;;34.00;23.30;;;3.10;99.90;;;;;;4993124;28;20489;-67
2022/03/11 05:19:49;;;;;;;34.97;23.27;;;3.20;99.90;;;;;;4992430;28;20053;-68
2022/03/11 05:22:14;;;;;;;34.47;23.70;;;3.20;99.90;;;;;;4993226;28;20347;-67
2022/03/11 05:24:40;;;;;;;38.22;23.83;;;3.20;99.90;;;;;;4991569;28;20042;-67
2022/03/11 05:27:07;;;;;;;38.08;23.50;;;3.10;99.90;;;;;;4993598;28;20034;-67
2022/03/11 05:29:34;;;;;;;34.00;22.80;;;3.00;99.90;;;;;;4992264;28;20088;-67
2022/03/11 05:32:00;;;;;;;35.00;22.58;;;2.50;99.90;;;;;;4992261;28;20039;-67
2022/03/11 05:34:26;;;;;;;41.40;23.95;;;2.70;99.90;;;;;;4992901;28;20046;-67
2022/03/11 05:36:52;;;;;;;37.67;22.95;;;;;;;;;;4992720;28;20042;-67
2022/03/11 05:39:18;;;;;;;46.78;24.20;;;3.00;99.90;;;;;;4992724;28;20053;-67
2022/03/11 05:41:44;;;;;;;43.83;24.45;;;3.20;99.90;;;;;;4993502;28;20034;-67
2022/03/11 05:44:10;;;;;;;37.58;24.10;;;2.70;99.90;;;;;;4991830;28;20038;-67
2022/03/11 05:46:36;;;;;;;43.67;23.55;;;3.20;99.90;;;;;;4992719;28;20031;-67
2022/03/11 05:49:02;;;;;;;46.45;23.40;;;;;;;;;;4993165;28;20043;-67
2022/03/11 05:51:28;;;;;;;35.28;23.30;;;2.50;99.90;;;;;;4992889;28;20046;-67
2022/03/11 05:53:54;;;;;;;41.72;22.88;;;;;;;;;;4991750;28;20409;-68
2022/03/11 05:56:20;;;;;;;39.00;24.10;;;2.30;99.90;;;;;;4992928;28;20043;-67
2022/03/11 05:58:46;;;;;;;41.60;24.13;;;1.80;99.90;;;;;;4991686;28;20057;-67
2022/03/11 06:01:12;;;;;;;35.63;22.92;;;2.20;99.90;;;;;;4991575;28;20414;-68
2022/03/11 06:03:38;;;;;;;36.20;22.98;;;2.80;99.90;;;;;;4992257;28;20057;-67
2022/03/11 06:06:03;;;;;;;38.25;24.25;;;3.00;99.90;;;;;;4992638;28;20400;-67
2022/03/11 06:08:29;;;;;;;40.40;24.33;;;3.40;99.90;;;;;;4991423;28;20042;-67
2022/03/11 06:10:55;;;;;;;36.13;23.73;;;2.80;99.90;;;;;;4991916;28;20478;-67
2022/03/11 06:13:21;;;;;;;48.72;24.50;;;;;;;;;;4999709;28;20121;-67
2022/03/11 06:15:46;;;;;;;38.33;23.77;;;2.70;99.90;;;;;;5010893;28;20054;-67
2022/03/11 06:18:18;;;;;;;38.65;24.08;;;2.70;99.90;;;;;;5011220;28;20096;-68
2022/03/11 06:20:44;;;;;;;38.60;23.02;;;;;;;;;;5010034;28;20045;-68
2022/03/11 06:23:09;;;;;;;38.35;24.15;;;2.20;99.90;;;;;;5010502;28;20049;-68
2022/03/11 06:25:35;;;;;;;39.75;23.08;;;2.30;99.90;;;;;;5011182;28;20099;-68
2022/03/11 06:28:01;;;;;;;36.42;23.25;;;;;;;;;;5009235;28;20508;-68
2022/03/11 06:30:27;;;;;;;41.05;23.58;;;3.00;99.90;;;;;;5010601;28;20061;-66
2022/03/11 06:32:53;;;;;;;38.88;23.00;;;;;;;;;;5010326;28;20496;-67
2022/03/11 06:35:19;;;;;;;38.17;22.83;;;;;;;;;;5010408;28;20505;-67
2022/03/11 06:37:47;;;;;;;36.35;22.77;;;2.80;99.90;;;;;;5011167;28;20319;-67
2022/03/11 06:40:13;;;;;;;38.88;23.83;;;2.80;99.90;;;;;;5010929;28;20095;-68
2022/03/11 06:42:44;;;;;;;39.05;22.67;;;2.80;99.90;;;;;;5010229;28;20049;-67
2022/03/11 06:45:11;;;;;;;36.20;22.90;;;2.90;99.90;;;;;;5003306;28;20077;-67
2022/03/11 06:47:38;;;;;;;43.17;23.80;;;;;;;;;;5010842;28;20084;-67
2022/03/11 06:50:05;;;;;;;42.10;23.00;;;2.30;99.90;;;;;;5014120;28;20049;-67
2022/03/11 06:52:31;;;;;;;41.38;23.20;;;;;;;;;;5015775;28;20048;-67
2022/03/11 06:54:57;;;;;;;35.03;23.77;;;;;;;;;;5014588;28;20041;-67
2022/03/11 06:57:23;;;;;;;64.60;24.05;;;4.00;99.90;;;;;;5015389;28;20374;-67
2022/03/11 06:59:49;;;;;;;43.20;22.20;;;3.00;99.90;;;;;;5014377;28;20054;-67
2022/03/11 07:02:16;;;;;;;36.33;23.48;;;2.90;99.90;;;;;;5013830;28;20078;-67
2022/03/11 07:04:42;;;;;;;40.08;22.42;;;3.40;99.90;;;;;;5015618;28;20082;-68
2022/03/11 07:07:08;;;;;;;35.83;23.15;;;3.30;99.90;;;;;;5015629;28;20076;-67
2022/03/11 07:09:35;;;;;;;34.00;22.17;;;3.50;99.90;;;;;;5015405;28;20043;-68
2022/03/11 07:12:02;;;;;;;41.88;22.45;;;3.30;99.90;;;;;;5014278;28;20049;-68
2022/03/11 07:14:34;;;;;;;46.83;23.25;;;2.80;99.90;;;;;;5015294;28;20180;-67
2022/03/11 07:17:00;;;;;;;35.35;23.05;;;3.50;99.90;;;;;;5015496;28;20049;-68
2022/03/11 07:19:29;;;;;;;40.40;23.85;;;3.30;99.90;;;;;;5015029;28;20441;-67
2022/03/11 07:21:56;;;;;;;38.60;23.95;;;3.70;99.90;;;;;;5015267;28;20092;-68
2022/03/11 07:24:22;;;;;;;46.38;24.17;;;3.20;99.90;;;;;;5014777;28;20096;-68
2022/03/11 07:26:47;;;;;;;43.78;22.98;;;3.10;99.90;;;;;;5015485;28;20038;-67
2022/03/11 07:29:13;;;;;;;39.13;23.08;;;4.20;99.90;;;;;;5015158;28;20416;-67
2022/03/11 07:31:39;;;;;;;45.20;23.17;;;3.80;99.90;;;;;;5014476;28;20453;-67
2022/03/11 07:34:05;;;;;;;35.80;23.20;;;;;;;;;;5013552;28;20045;-67
2022/03/11 07:36:34;;;;;;;43.83;23.10;;;3.50;99.90;;;;;;5014859;28;20045;-67
2022/03/11 07:39:04;;;;;;;44.60;23.38;;;3.80;99.90;;;;;;5015060;28;20045;-67
2022/03/11 07:41:31;;;;;;;50.42;23.50;;;3.80;99.90;;;;;;4997080;28;20049;-67
2022/03/11 07:43:57;;;;;;;36.60;23.02;;;;;;;;;;5015349;28;20045;-68
2022/03/11 07:46:23;;;;;;;40.90;23.58;;;4.40;99.90;;;;;;5013956;28;20040;-68
2022/03/11 07:48:50;;;;;;;44.75;23.05;;;4.30;99.90;;;;;;5015006;28;20044;-67
2022/03/11 07:51:17;;;;;;;31.48;22.40;;;4.30;99.90;;;;;;5013258;28;20041;-68
2022/03/11 07:53:43;;;;;;;38.38;23.55;;;4.40;99.90;;;;;;5013383;28;20042;-68
2022/03/11 07:56:10;;;;;;;31.80;21.95;;;4.50;99.90;;;;;;5014515;28;20040;-67
2022/03/11 07:58:36;;;;;;;43.33;22.55;;;4.50;99.90;;;;;;5014326;28;20415;-67
2022/03/11 08:01:04;;;;;;;42.40;21.95;;;;;;;;;;5013978;28;20133;-67
2022/03/11 08:03:30;;;;;;;40.85;23.02;;;4.50;99.90;;;;;;5014315;28;20078;-67
2022/03/11 08:05:56;;;;;;;33.65;22.27;;;5.10;99.90;;;;;;5014605;28;20495;-66
2022/03/11 08:08:22;;;;;;;37.20;22.80;;;4.80;99.90;;;;;;5014490;28;20038;-67
2022/03/11 08:10:48;;;;;;;34.63;23.00;;;4.90;99.90;;;;;;4997075;28;20041;-67
2022/03/11 08:13:14;;;;;;;36.63;22.33;;;5.40;99.90;;;;;;4996473;28;20503;-67
2022/03/11 08:15:40;;;;;;;41.28;22.63;;;4.80;99.90;;;;;;5012194;28;20129;-66
2022/03/11 08:18:05;;;;;;;39.25;22.70;;;5.00;99.90;;;;;;5014385;28;20033;-67
2022/03/11 08:20:31;;;;;;;40.97;23.10;;;;;;;;;;5014059;28;20037;-67
2022/03/11 08:22:58;;;;;;;62.03;23.58;;;;;;;;;;5014102;28;20168;-67
2022/03/11 08:25:26;;;;;;;33.53;21.80;;;5.20;99.90;;;;;;5013608;28;20041;-69
2022/03/11 08:27:57;;;;;;;45.47;22.48;;;5.30;99.90;;;;;;5014210;28;20507;-67
2022/03/11 08:30:24;;;;;;;53.70;23.63;;;5.40;99.90;;;;;;4995722;28;20057;-69
2022/03/11 08:32:51;;;;;;;38.47;21.60;;;5.40;99.90;;;;;;4996425;28;20071;-69
2022/03/11 08:35:17;;;;;;;38.85;21.38;;;;;;;;;;5012278;28;20046;-69
2022/03/11 08:37:43;;;;;;;37.50;22.45;;;5.10;99.90;;;;;;5014363;28;20045;-67
2022/03/11 08:40:10;;;;;;;46.20;21.05;;;6.40;99.90;;;;;;5012051;28;20042;-67
2022/03/11 08:42:37;;;;;;;58.53;22.55;;;7.30;97.10;;;;;;5011859;28;20048;-68
2022/03/11 08:45:04;;;;;;;59.97;22.23;;;8.10;99.20;;;;;;5013405;28;20038;-68
2022/03/11 08:47:31;;;;;;;36.50;21.05;;;8.80;96.00;;;;;;4996205;28;20038;-68
2022/03/11 08:49:56;;;;;;;41.30;21.63;;;9.30;93.70;;;;;;5013321;28;20451;-68
2022/03/11 08:52:25;;;;;;;40.30;21.73;;;9.50;86.20;;;;;;5013500;28;20056;-68
2022/03/11 08:54:53;;;;;;;38.47;21.88;;;9.30;85.40;;;;;;5013425;28;20034;-68
2022/03/11 08:57:19;;;;;;;37.30;21.38;;;9.60;71.80;;;;;;5012331;28;20049;-68
2022/03/11 08:59:45;;;;;;;61.28;22.08;;;9.50;80.70;;;;;;5013186;28;20386;-68
2022/03/11 09:02:13;;;;;;;37.88;21.30;;;9.10;93.50;;;;;;5012679;28;20053;-68
2022/03/11 09:04:39;;;;;;;44.33;20.25;;;8.80;93.90;;;;;;5011995;28;20053;-68
2022/03/11 09:07:05;;;;;;;51.78;21.67;;;8.80;94.20;;;;;;5013417;28;20050;-68
2022/03/11 09:09:32;;;;;;;42.40;21.50;;;8.90;94.50;;;;;;5012961;28;20042;-68
2022/03/11 09:11:58;;;;;;;42.88;20.73;;;9.10;94.20;;;;;;5011305;28;20045;-68
2022/03/11 09:14:24;;;;;;;36.35;21.40;;;9.00;94.30;;;;;;5010716;28;20103;-67
2022/03/11 09:16:50;;;;;;;41.20;21.00;;;8.80;93.60;;;;;;5012078;28;20046;-68
2022/03/11 09:19:16;;;;;;;39.92;20.45;;;;;;;;;;5011691;28;20123;-68
2022/03/11 09:21:42;;;;;;;33.88;20.13;;;9.10;93.70;;;;;;5011527;28;20049;-67
2022/03/11 09:24:07;;;;;;;36.35;21.27;;;8.30;77.20;;;;;;4995153;28;20405;-67
2022/03/11 09:26:34;;;;;;;38.17;21.73;;;;;;;;;;5012788;28;20091;-67
2022/03/11 09:28:59;;;;;;;77.22;22.30;;;8.70;93.20;;;;;;5011339;28;20135;-67
2022/03/11 09:31:25;;;;;;;38.30;21.13;;;9.00;92.20;;;;;;5010931;28;20505;-66
2022/03/11 09:33:52;;;;;;;38.67;21.20;;;;;;;;;;5011401;28;20118;-68
2022/03/11 09:36:18;;;;;;;32.22;20.27;;;8.90;92.70;;;;;;5012523;28;20042;-67
2022/03/11 09:38:43;;;;;;;55.35;21.42;;;9.30;92.60;;;;;;5011852;28;20053;-68
2022/03/11 09:41:09;;;;;;;60.75;21.75;;;9.10;74.50;;;;;;5010933;28;20033;-67
2022/03/11 09:43:37;;;;;;;43.90;20.92;;;9.00;92.00;;;;;;5011368;28;20125;-67
2022/03/11 09:46:04;;;;;;;34.50;20.50;;;;;;;;;;5011402;28;20042;-68
2022/03/11 09:48:30;;;;;;;37.47;20.55;;;9.20;71.20;;;;;;5012665;28;20038;-67
2022/03/11 09:50:59;;;;;;;48.53;21.30;;;9.20;91.50;;;;;;5011309;28;20507;-68
2022/03/11 09:53:25;;;;;;;48.22;21.13;;;8.50;90.70;;;;;;5012518;28;20045;-67
2022/03/11 09:55:51;;;;;;;33.65;20.13;;;8.80;87.40;;;;;;5010965;28;20052;-68
2022/03/11 09:58:17;;;;;;;32.50;19.88;;;;;;;;;;5012184;28;20042;-67
2022/03/11 10:00:43;;;;;;;38.08;20.55;;;;;;;;;;5010938;28;20080;-67
2022/03/11 10:03:08;;;;;;;35.50;21.25;;;8.70;90.60;;;;;;4994664;28;20505;-68
2022/03/11 10:05:47;;;;;;;42.47;20.45;;;9.10;90.90;;;;;;5011079;28;20053;-67
2022/03/11 10:08:14;;;;;;;42.42;20.58;;;9.50;90.30;;;;;;4994813;28;20392;-68
2022/03/11 10:10:39;;;;;;;34.67;19.40;;;10.10;89.90;;;;;;5010739;28;20078;-68
2022/03/11 10:13:10;;;;;;;41.28;19.33;;;9.60;79.20;;;;;;5011167;28;20084;-68
2022/03/11 10:15:36;;;;;;;35.00;19.63;;;9.30;69.90;;;;;;5011120;28;20049;-68
2022/03/11 10:18:02;;;;;;;47.78;20.40;;;;;;;;;;5012370;28;20129;-68
2022/03/11 10:20:31;;;;;;;47.80;21.23;;;9.50;87.30;;;;;;5010800;28;20196;-68
2022/03/11 10:22:57;;;;;;;46.72;20.27;;;9.50;87.80;;;;;;5012233;28;20384;-69
2022/03/11 10:25:28;;;;;;;56.25;20.65;;;9.60;87.10;;;;;;5010393;28;20038;-68
2022/03/11 10:28:04;;;;;;;59.20;20.65;;;9.70;87.30;;;;;;4995041;28;20385;-68
2022/03/11 10:30:31;;;;;;;37.35;19.60;;;9.80;87.50;;;;;;5010932;28;20445;-68
2022/03/11 10:32:59;;;;;;;29.77;19.73;;;9.70;67.60;;;;;;5010626;28;20124;-68
2022/03/11 10:35:36;;;;;;;35.15;19.65;;;10.00;86.90;;;;;;5011727;28;20045;-66
2022/03/11 10:38:02;;;;;;;94.50;22.23;;;;;;;;;;5010754;28;20524;-67
2022/03/11 10:40:29;;;;;;;33.75;18.55;;;10.50;84.40;;;;;;5009908;28;20457;-67
2022/03/11 10:43:14;;;;;;;37.13;19.38;;;9.80;63.80;;;;;;4994573;28;20042;-68
2022/03/11 10:46:01;;;;;;;30.90;19.02;;;10.00;83.60;;;;;;5010676;28;20046;-69
2022/03/11 10:48:51;;;;;;;45.65;20.13;;;10.30;82.70;;;;;;5010773;28;20080;-69
2022/03/11 10:51:32;;;;;;;37.97;19.67;;;10.20;66.10;;;;;;5010391;28;20052;-69
2022/03/11 10:54:04;;;;;;;42.38;19.83;;;9.80;82.30;;;;;;5010118;28;20104;-69
2022/03/11 10:56:39;;;;;;;34.45;18.10;;;10.00;67.30;;;;;;5011700;28;20042;-69
2022/03/11 10:59:30;;;;;;;31.27;18.70;;;10.10;61.80;;;;;;5011455;28;20030;-68
2022/03/11 11:01:58;;;;;;;45.80;18.80;;;10.20;61.90;;;;;;5009946;28;20556;-68
2022/03/11 11:04:25;;;;;;;29.98;18.13;;;10.30;81.30;;;;;;5009529;28;20038;-68
2022/03/11 11:06:52;;;;;;;34.08;18.15;;;;;;;;;;5009943;28;20045;-68
2022/03/11 11:09:21;;;;;;;34.55;18.15;;;10.70;80.90;;;;;;4991207;28;20039;-68
2022/03/11 11:11:46;;;;;;;30.33;17.70;;;10.70;80.20;;;;;;4992076;28;20046;-68
2022/03/11 11:14:12;;;;;;;24.35;17.98;;;10.50;79.20;;;;;;4990842;28;20053;-68
2022/03/11 11:16:43;;;;;;;31.42;17.77;;;10.70;78.70;;;;;;4990576;28;20512;-68
2022/03/11 11:19:14;;;;;;;28.83;17.83;;;10.90;77.90;;;;;;4990574;28;20088;-68
2022/03/11 11:21:45;;;;;;;35.92;17.27;;;11.00;77.70;;;;;;4990669;28;20042;-68
2022/03/11 11:24:16;;;;;;;49.63;19.40;;;11.20;59.60;;;;;;4991076;28;20054;-67
2022/03/11 11:26:50;;;;;;;28.13;17.17;;;11.10;58.30;;;;;;4990712;28;20042;-67
2022/03/11 11:29:21;;;;;;;77.75;19.33;;;11.20;75.90;;;;;;5006692;28;20490;-67
2022/03/11 11:31:48;;;;;;;33.80;16.45;;;11.40;75.10;;;;;;4991864;28;20117;-67
2022/03/11 11:34:30;;;;;;;50.05;17.65;;;11.50;73.80;;;;;;4991386;28;20109;-68
2022/03/11 11:36:56;;;;;;;46.45;17.10;;;11.50;57.50;;;;;;4995599;28;20042;-69
2022/03/11 11:39:34;;;;;;;33.53;16.63;;;11.30;72.90;;;;;;4994170;28;20134;-69
2022/03/11 11:42:09;;;;;;;171.32;25.92;;;11.20;73.50;;;;;;4995540;28;20100;-69
2022/03/11 11:44:37;;;;;;;26.93;16.33;;;11.50;73.20;;;;;;4993803;28;20070;-68
2022/03/11 11:47:13;;;;;;;169.55;26.13;;;11.30;73.10;;;;;;4994031;28;20121;-68
2022/03/11 11:49:47;;;;;;;56.92;18.00;;;11.80;72.30;;;;;;4977649;28;20392;-68
2022/03/11 11:52:36;;;;;;;30.05;16.52;;;11.70;53.90;;;;;;4994987;28;20412;-68
2022/03/11 11:55:19;;;;;;;35.13;16.77;;;11.80;54.70;;;;;;4993924;28;20046;-68
2022/03/11 11:57:46;;;;;;;29.63;16.15;;;11.90;66.90;;;;;;4994079;28;20117;-68
2022/03/11 12:00:26;;;;;;;110.45;19.55;;;11.80;69.70;;;;;;4993528;28;20462;-68
2022/03/11 12:02:53;;;;;;;30.05;16.13;;;12.00;70.00;;;;;;4994983;28;20113;-68
2022/03/11 12:05:43;;;;;;;119.40;22.30;;;12.10;70.00;;;;;;4993320;28;20046;-68
2022/03/11 12:08:33;;;;;;;75.28;20.65;;;12.20;68.70;;;;;;4994397;28;20046;-68
2022/03/11 12:10:59;;;;;;;28.20;16.02;;;12.50;70.50;;;;;;4997742;28;20129;-69
2022/03/11 12:13:33;;;;;;;30.77;16.80;;;12.50;69.30;;;;;;4977333;28;20479;-68
2022/03/11 12:16:00;;;;;;;44.78;15.48;;;12.60;69.60;;;;;;4993465;28;20042;-69
2022/03/11 12:18:37;;;;;;;37.00;17.08;;;12.40;53.10;;;;;;4993163;28;20054;-68
2022/03/11 12:21:04;;;;;;;28.25;15.32;;;;;;;;;;4994185;28;20034;-69
2022/03/11 12:23:31;;;;;;;61.70;15.93;;;12.60;67.30;;;;;;4992996;28;20412;-67
2022/03/11 12:25:58;;;;;;;25.20;15.20;;;12.40;68.40;;;;;;4993435;28;20057;-67
2022/03/11 12:28:30;;;;;;;45.83;16.48;;;12.70;50.90;;;;;;4994317;28;20042;-67
2022/03/11 12:31:19;;;;;;;26.15;15.18;;;12.50;66.80;;;;;;4993223;28;20081;-68
2022/03/11 12:33:47;;;;;;;84.28;18.10;;;12.30;67.60;;;;;;4993228;28;20517;-68
2022/03/11 12:36:16;;;;;;;23.83;14.90;;;12.40;67.80;;;;;;4994190;28;20038;-67
2022/03/11 12:38:43;;;;;;;25.67;14.98;;;13.00;68.00;;;;;;4993337;28;20042;-67
2022/03/11 12:41:10;;;;;;;37.17;15.35;;;13.00;66.80;;;;;;4993975;28;20130;-68
2022/03/11 12:43:37;;;;;;;35.90;15.52;;;13.00;50.30;;;;;;4992826;28;20101;-68
2022/03/11 12:46:05;;;;;;;27.00;14.95;;;13.00;49.80;;;;;;4976322;28;20042;-69
2022/03/11 12:48:34;;;;;;;38.75;15.65;;;13.10;49.80;;;;;;4992999;28;20042;-68